Time;durP1;ratioP1;P1;durP2;ratioP2;P2;SDS_P1;SDS_P2;PMS_P1;PMS_P2;Temp;Humidity;BMP_temperature;BMP_pressure;BME280_temperature;BME280_humidity;BME280_pressure;Samples;Min_cycle;Max_cycle;Signal;HPM_P1;HPM_P2
2022/11/22 00:00:39;;;;;;;3.65;3.35;;;;;;;;;;5104661;27;43513;-59
2022/11/22 00:03:07;;;;;;;3.75;3.38;;;;;;;;;;5102215;27;43474;-60
2022/11/22 00:05:35;;;;;;;3.53;3.22;;;;;;;;;;5085270;27;45374;-59
2022/11/22 00:08:03;;;;;;;3.60;3.30;;;;;;;;;;5103380;27;44062;-59
2022/11/22 00:10:31;;;;;;;3.47;3.20;;;;;;;;;;5103357;27;43398;-60
2022/11/22 00:12:59;;;;;;;3.20;2.97;;;;;;;;;;5102772;27;43482;-59
2022/11/22 00:15:28;;;;;;;3.72;3.42;;;;;;;;;;5102907;27;45343;-60
2022/11/22 00:17:56;;;;;;;3.47;3.17;;;;;;;;;;5106975;27;43366;-60
2022/11/22 00:20:24;;;;;;;3.28;3.08;;;;;;;;;;5107005;27;43422;-60
2022/11/22 00:22:52;;;;;;;3.60;3.30;;;;;;;;;;5106676;27;43491;-60
2022/11/22 00:25:19;;;;;;;3.28;3.08;;;;;;;;;;5105238;27;43778;-60
2022/11/22 00:27:47;;;;;;;3.03;2.78;;;;;;;;;;5107028;27;44054;-60
2022/11/22 00:30:15;;;;;;;3.25;3.05;;;;;;;;;;5107544;27;43904;-60
2022/11/22 00:32:43;;;;;;;3.00;2.80;;;;;;;;;;5106047;27;43658;-59
2022/11/22 00:35:11;;;;;;;3.20;3.00;;;;;;;;;;5105275;27;43892;-60
2022/11/22 00:37:39;;;;;;;2.85;2.65;;;;;;;;;;5106831;27;43686;-60
2022/11/22 00:40:07;;;;;;;3.58;3.15;;;;;;;;;;5105823;27;43466;-60
2022/11/22 00:42:35;;;;;;;2.80;2.60;;;;;;;;;;5099504;27;43474;-60
2022/11/22 00:45:02;;;;;;;3.13;2.92;;;;;;;;;;5106316;27;45310;-60
2022/11/22 00:47:30;;;;;;;3.22;3.03;;;;;;;;;;5104990;27;43427;-59
2022/11/22 00:49:58;;;;;;;3.00;2.80;;;;;;;;;;5105883;27;43460;-60
2022/11/22 00:52:26;;;;;;;3.40;3.10;;;;;;;;;;5105923;27;43578;-60
2022/11/22 00:54:54;;;;;;;2.70;2.50;;;;;;;;;;5105947;27;44761;-59
2022/11/22 00:57:21;;;;;;;3.38;3.08;;;;;;;;;;5106226;27;43649;-60
2022/11/22 00:59:49;;;;;;;3.30;3.00;;;;;;;;;;5106110;27;43428;-60
2022/11/22 01:02:17;;;;;;;2.83;2.65;;;;;;;;;;5099878;27;43992;-60
2022/11/22 01:04:46;;;;;;;3.38;3.17;;;;;;;;;;5105896;27;44688;-60
2022/11/22 01:07:13;;;;;;;2.90;2.70;;;;;;;;;;5105595;27;43985;-60
2022/11/22 01:09:41;;;;;;;3.17;2.97;;;;;;;;;;5106576;27;43406;-60
2022/11/22 01:12:09;;;;;;;3.05;2.85;;;;;;;;;;5108391;27;43610;-60
2022/11/22 01:14:37;;;;;;;3.00;2.80;;;;;;;;;;5105333;27;45088;-60
2022/11/22 01:17:04;;;;;;;3.10;2.80;;;;;;;;;;5106715;27;43473;-60
2022/11/22 01:19:32;;;;;;;3.03;2.83;;;;;;;;;;5105843;27;43354;-60
2022/11/22 01:22:00;;;;;;;3.05;2.85;;;;;;;;;;5099801;27;43430;-60
2022/11/22 01:24:28;;;;;;;2.95;2.75;;;;;;;;;;5104814;27;45046;-60
2022/11/22 01:26:56;;;;;;;2.83;2.63;;;;;;;;;;5106198;27;43459;-60
2022/11/22 01:29:23;;;;;;;3.08;2.88;;;;;;;;;;5101271;27;43401;-60
2022/11/22 01:31:51;;;;;;;2.80;2.60;;;;;;;;;;5105027;27;43561;-60
2022/11/22 01:34:19;;;;;;;3.20;2.90;;;;;;;;;;5104719;27;43875;-60
2022/11/22 01:36:47;;;;;;;2.90;2.70;;;;;;;;;;5106251;27;43435;-60
2022/11/22 01:39:14;;;;;;;3.15;2.95;;;;;;;;;;5084580;27;43426;-59
2022/11/22 01:41:42;;;;;;;3.15;2.95;;;;;;;;;;5105481;27;43566;-60
2022/11/22 01:44:22;;;;;;;3.63;3.25;;;;;;;;;;5104594;27;44967;-60
2022/11/22 01:46:55;;;;;;;2.88;2.67;;;;;;;;;;5107099;27;44178;-60
2022/11/22 01:49:26;;;;;;;3.30;3.08;;;;;;;;;;5104764;27;43376;-60
2022/11/22 01:51:57;;;;;;;3.33;3.03;;;;;;;;;;5105496;27;43469;-59
2022/11/22 01:54:27;;;;;;;3.45;3.17;;;;;;;;;;5105078;27;44713;-60
2022/11/22 01:56:57;;;;;;;3.33;3.03;;;;;;;;;;5104681;27;43959;-60
2022/11/22 01:59:26;;;;;;;3.38;3.08;;;;;;;;;;5089731;27;43406;-60
2022/11/22 02:01:55;;;;;;;3.43;3.23;;;;;;;;;;5105216;27;43461;-60
2022/11/22 02:04:27;;;;;;;3.47;3.17;;;;;;;;;;5105032;27;44070;-60
2022/11/22 02:07:05;;;;;;;3.10;2.90;;;;;;;;;;5105657;27;43994;-60
2022/11/22 02:09:33;;;;;;;3.60;3.30;;;;;;;;;;5104842;27;43358;-60
2022/11/22 02:12:03;;;;;;;3.45;3.15;;;;;;;;;;5104771;27;43423;-60
2022/11/22 02:14:31;;;;;;;3.33;3.10;;;;;;;;;;5104750;27;44120;-60
2022/11/22 02:16:59;;;;;;;3.15;2.95;;;;;;;;;;5105069;27;43443;-60
2022/11/22 02:19:26;;;;;;;3.60;3.30;;;;;;;;;;5104218;27;43462;-60
2022/11/22 02:21:58;;;;;;;3.30;3.10;;;;;;;;;;5104910;27;43506;-60
2022/11/22 02:24:35;;;;;;;3.53;3.22;;;;;;;;;;5103544;27;43897;-60
2022/11/22 02:27:03;;;;;;;3.38;3.08;;;;;;;;;;5104989;27;43370;-60
2022/11/22 02:29:31;;;;;;;3.70;3.40;;;;;;;;;;5104766;27;43386;-60
2022/11/22 02:31:59;;;;;;;3.30;3.10;;;;;;;;;;5105040;27;43427;-60
2022/11/22 02:34:27;;;;;;;3.20;3.00;;;;;;;;;;5103799;27;43884;-60
2022/11/22 02:36:55;;;;;;;3.85;3.55;;;;;;;;;;5101340;27;43456;-60
2022/11/22 02:39:28;;;;;;;3.33;3.10;;;;;;;;;;5102369;27;43414;-60
2022/11/22 02:41:57;;;;;;;3.20;3.00;;;;;;;;;;5105468;27;43455;-60
2022/11/22 02:44:26;;;;;;;3.60;3.30;;;;;;;;;;5103608;27;44068;-60
2022/11/22 02:46:55;;;;;;;3.60;3.30;;;;;;;;;;5104249;27;43735;-60
2022/11/22 02:49:24;;;;;;;3.63;3.15;;;;;;;;;;5103993;27;43398;-60
2022/11/22 02:51:52;;;;;;;3.55;3.25;;;;;;;;;;5105343;27;43541;-60
2022/11/22 02:54:20;;;;;;;3.20;3.00;;;;;;;;;;5103064;27;45141;-60
2022/11/22 02:56:48;;;;;;;3.03;2.83;;;;;;;;;;5104589;27;43403;-60
2022/11/22 02:59:15;;;;;;;3.63;3.10;;;;;;;;;;5103803;27;43435;-60
2022/11/22 03:01:45;;;;;;;3.55;3.25;;;;;;;;;;5102976;27;43592;-60
2022/11/22 03:04:23;;;;;;;3.33;3.13;;;;;;;;;;5103324;27;44669;-60
2022/11/22 03:06:55;;;;;;;3.40;3.10;;;;;;;;;;5103623;27;43441;-60
2022/11/22 03:09:24;;;;;;;3.38;3.17;;;;;;;;;;5104666;27;43430;-60
2022/11/22 03:11:51;;;;;;;3.22;3.03;;;;;;;;;;5108740;27;43446;-60
2022/11/22 03:14:19;;;;;;;3.25;3.05;;;;;;;;;;5102944;27;44723;-60
2022/11/22 03:16:47;;;;;;;3.10;2.90;;;;;;;;;;5104039;27;43985;-60
2022/11/22 03:19:16;;;;;;;3.17;2.97;;;;;;;;;;5104323;27;43482;-59
2022/11/22 03:21:44;;;;;;;3.33;3.13;;;;;;;;;;5108135;27;43584;-60
2022/11/22 03:24:12;;;;;;;3.13;2.92;;;;;;;;;;5103021;27;44817;-59
2022/11/22 03:26:40;;;;;;;3.40;3.10;;;;;;;;;;5103462;27;43411;-60
2022/11/22 03:29:08;;;;;;;3.20;2.90;;;;;;;;;;5104498;27;43434;-60
2022/11/22 03:31:36;;;;;;;3.40;3.10;;;;;;;;;;5103113;27;43541;-60
2022/11/22 03:34:04;;;;;;;3.13;2.92;;;;;;;;;;5103376;27;43759;-60
2022/11/22 03:36:31;;;;;;;3.33;3.10;;;;;;;;;;5102222;27;43984;-60
2022/11/22 03:38:59;;;;;;;3.15;2.95;;;;;;;;;;5104989;27;43510;-60
2022/11/22 03:41:27;;;;;;;3.20;3.00;;;;;;;;;;5102874;27;43605;-60
2022/11/22 03:43:55;;;;;;;3.20;3.00;;;;;;;;;;5102889;27;44071;-60
2022/11/22 03:46:22;;;;;;;3.17;2.97;;;;;;;;;;5103124;27;43913;-60
2022/11/22 03:48:50;;;;;;;3.28;3.05;;;;;;;;;;5104030;27;43498;-60
2022/11/22 03:51:18;;;;;;;2.80;2.60;;;;;;;;;;5100760;27;43651;-60
2022/11/22 03:53:46;;;;;;;3.20;2.95;;;;;;;;;;5103570;27;45000;-60
2022/11/22 03:56:13;;;;;;;3.15;2.92;;;;;;;;;;5102669;27;44114;-60
2022/11/22 03:58:41;;;;;;;2.65;2.50;;;;;;;;;;5104529;27;43447;-60
2022/11/22 04:01:09;;;;;;;2.80;2.60;;;;;;;;;;5103313;27;43489;-60
2022/11/22 04:03:43;;;;;;;3.00;2.80;;;;;;;;;;5102608;27;45002;-60
2022/11/22 04:06:10;;;;;;;3.03;2.83;;;;;;;;;;5103198;27;43990;-60
2022/11/22 04:08:38;;;;;;;2.75;2.55;;;;;;;;;;5103844;27;43359;-60
2022/11/22 04:11:06;;;;;;;3.13;2.83;;;;;;;;;;5102928;27;43430;-60
2022/11/22 04:16:21;;;;;;;2.88;2.67;;;;;;;;;;5103119;27;43443;-60
2022/11/22 04:18:49;;;;;;;2.97;2.78;;;;;;;;;;5102989;27;43956;-60
2022/11/22 04:21:35;;;;;;;2.83;2.63;;;;;;;;;;5102886;27;43912;-60
2022/11/22 04:26:54;;;;;;;3.10;2.90;;;;;;;;;;5103587;27;43775;-60
2022/11/22 04:29:22;;;;;;;2.67;2.47;;;;;;;;;;5102793;27;43386;-60
2022/11/22 04:34:37;;;;;;;3.08;2.88;;;;;;;;;;5102881;27;43877;-60
2022/11/22 04:37:05;;;;;;;2.45;2.33;;;;;;;;;;5102834;27;43344;-60
2022/11/22 04:39:33;;;;;;;2.60;2.40;;;;;;;;;;5102550;27;43408;-60
2022/11/22 04:44:47;;;;;;;2.65;2.40;;;;;;;;;;5102858;27;43796;-60
2022/11/22 04:47:57;;;;;;;2.55;2.38;;;;;;;;;;5101796;27;43438;-59
2022/11/22 04:52:52;;;;;;;2.17;2.08;;;;;;;;;;5100645;27;43486;-60
2022/11/22 04:52:54;;;;;;;2.80;2.60;;;;;;;;;;5101017;27;43424;-60
2022/11/22 04:55:22;;;;;;;2.80;2.60;;;;;;;;;;5102105;27;43812;-60
2022/11/22 04:57:50;;;;;;;2.80;2.60;;;;;;;;;;5102931;27;43378;-60
2022/11/22 05:00:26;;;;;;;2.47;2.28;;;;;;;;;;5101973;27;43533;-60
2022/11/22 05:02:54;;;;;;;2.35;2.15;;;;;;;;;;5103648;27;43478;-60
2022/11/22 05:05:23;;;;;;;2.78;2.58;;;;;;;;;;5104826;27;44766;-60
2022/11/22 05:07:50;;;;;;;2.50;2.30;;;;;;;;;;5091109;27;43767;-60
2022/11/22 05:10:18;;;;;;;2.70;2.50;;;;;;;;;;5105965;27;43446;-60
2022/11/22 05:12:53;;;;;;;2.50;2.30;;;;;;;;;;5105972;27;43467;-60
2022/11/22 05:15:21;;;;;;;2.20;2.10;;;;;;;;;;5105602;27;43805;-60
2022/11/22 05:17:48;;;;;;;2.45;2.30;;;;;;;;;;5105863;27;43709;-60
2022/11/22 05:20:16;;;;;;;2.65;2.45;;;;;;;;;;5105663;27;43479;-60
2022/11/22 05:25:30;;;;;;;2.03;1.92;;;;;;;;;;5103102;27;43748;-60
2022/11/22 05:27:58;;;;;;;2.58;2.40;;;;;;;;;;5105101;27;43477;-60
2022/11/22 05:30:26;;;;;;;2.13;2.03;;;;;;;;;;5105663;27;43418;-60
2022/11/22 05:32:54;;;;;;;2.10;2.00;;;;;;;;;;5107168;27;43616;-60
2022/11/22 05:35:22;;;;;;;2.30;2.20;;;;;;;;;;5107009;27;44056;-60
2022/11/22 05:37:50;;;;;;;2.50;2.30;;;;;;;;;;5105918;27;43344;-60
2022/11/22 05:40:17;;;;;;;2.33;2.13;;;;;;;;;;5105026;27;44029;-60
2022/11/22 05:42:45;;;;;;;2.30;2.10;;;;;;;;;;5106095;27;43573;-60
2022/11/22 05:45:13;;;;;;;2.10;2.00;;;;;;;;;;5104349;27;43782;-60
2022/11/22 05:47:41;;;;;;;2.10;2.00;;;;;;;;;;5105037;27;44002;-60
2022/11/22 05:50:09;;;;;;;2.38;2.17;;;;;;;;;;5105035;27;43417;-60
2022/11/22 05:52:37;;;;;;;2.35;2.17;;;;;;;;;;5105252;27;43565;-60
2022/11/22 05:55:05;;;;;;;2.67;2.47;;;;;;;;;;5105091;27;43929;-60
2022/11/22 05:57:33;;;;;;;2.10;2.00;;;;;;;;;;5104510;27;43870;-60
2022/11/22 06:00:00;;;;;;;2.30;2.10;;;;;;;;;;5100141;27;43524;-60
2022/11/22 06:02:38;;;;;;;1.90;1.80;;;;;;;;;;5101307;27;43575;-60
2022/11/22 06:05:06;;;;;;;2.00;1.90;;;;;;;;;;5097396;27;43984;-60
2022/11/22 06:07:34;;;;;;;1.88;1.77;;;;;;;;;;5103342;27;43790;-60
2022/11/22 06:10:01;;;;;;;2.20;2.10;;;;;;;;;;5104913;27;43379;-60
2022/11/22 06:12:29;;;;;;;2.30;2.20;;;;;;;;;;5103619;27;43524;-60
2022/11/22 06:14:57;;;;;;;2.00;1.90;;;;;;;;;;5104350;27;44985;-60
2022/11/22 06:17:25;;;;;;;2.00;1.90;;;;;;;;;;5103790;27;43435;-60
2022/11/22 06:19:52;;;;;;;1.80;1.70;;;;;;;;;;5105123;27;43429;-59
2022/11/22 06:22:20;;;;;;;2.00;1.90;;;;;;;;;;5101738;27;43647;-59
2022/11/22 06:24:48;;;;;;;2.00;1.90;;;;;;;;;;5104315;27;43788;-60
2022/11/22 06:27:16;;;;;;;2.10;2.00;;;;;;;;;;5104432;27;43440;-60
2022/11/22 06:29:44;;;;;;;1.90;1.80;;;;;;;;;;5104922;27;43457;-60
2022/11/22 06:32:12;;;;;;;1.83;1.73;;;;;;;;;;5100742;27;43454;-60
2022/11/22 06:34:40;;;;;;;2.10;1.90;;;;;;;;;;5104727;27;44669;-60
2022/11/22 06:37:07;;;;;;;1.77;1.67;;;;;;;;;;5103219;27;43408;-59
2022/11/22 06:39:36;;;;;;;2.20;2.00;;;;;;;;;;5086487;27;43443;-60
2022/11/22 06:42:04;;;;;;;1.80;1.70;;;;;;;;;;5104799;27;43636;-60
2022/11/22 06:44:33;;;;;;;1.85;1.75;;;;;;;;;;5103663;27;45028;-60
2022/11/22 06:47:01;;;;;;;1.70;1.60;;;;;;;;;;5103932;27;43396;-59
2022/11/22 06:49:28;;;;;;;1.70;1.60;;;;;;;;;;5103350;27;43481;-60
2022/11/22 06:51:56;;;;;;;2.90;1.98;;;;;;;;;;5101083;27;43719;-59
2022/11/22 06:54:24;;;;;;;1.92;1.83;;;;;;;;;;5103667;27;44145;-60
2022/11/22 06:56:52;;;;;;;1.95;1.85;;;;;;;;;;5104312;27;43372;-60
2022/11/22 06:59:20;;;;;;;2.10;1.90;;;;;;;;;;5102152;27;43453;-60
2022/11/22 07:01:48;;;;;;;1.80;1.70;;;;;;;;;;5101254;27;43486;-60
2022/11/22 07:04:15;;;;;;;2.13;1.92;;;;;;;;;;5102741;27;43943;-59
2022/11/22 07:06:43;;;;;;;1.98;1.88;;;;;;;;;;5104278;27;44022;-59
2022/11/22 07:09:11;;;;;;;1.90;1.80;;;;;;;;;;5102771;27;43475;-59
2022/11/22 07:11:40;;;;;;;2.75;1.85;;;;;;;;;;5104174;27;43596;-59
2022/11/22 07:14:08;;;;;;;1.98;1.88;;;;;;;;;;5102912;27;44031;-59
2022/11/22 07:16:37;;;;;;;2.20;2.00;;;;;;;;;;5090436;27;43441;-59
2022/11/22 07:19:06;;;;;;;2.15;1.75;;;;;;;;;;5087743;27;43401;-59
2022/11/22 07:21:35;;;;;;;1.80;1.70;;;;;;;;;;5103464;27;43467;-59
2022/11/22 07:24:03;;;;;;;1.88;1.70;;;;;;;;;;5098792;27;43804;-59
2022/11/22 07:26:31;;;;;;;2.30;1.85;;;;;;;;;;5103128;27;43523;-59
2022/11/22 07:28:59;;;;;;;2.10;2.00;;;;;;;;;;5104520;27;43437;-59
2022/11/22 07:31:27;;;;;;;2.00;1.90;;;;;;;;;;5097813;27;43422;-59
2022/11/22 07:33:56;;;;;;;2.75;2.13;;;;;;;;;;5103306;27;44029;-59
2022/11/22 07:36:27;;;;;;;2.05;1.95;;;;;;;;;;5090774;27;44103;-59
2022/11/22 07:38:55;;;;;;;2.10;2.00;;;;;;;;;;5102874;27;43437;-59
2022/11/22 07:41:23;;;;;;;1.67;1.58;;;;;;;;;;5102562;27;43680;-59
2022/11/22 07:43:51;;;;;;;2.10;2.00;;;;;;;;;;5100108;27;43809;-59
2022/11/22 07:46:32;;;;;;;2.17;1.88;;;;;;;;;;5106519;27;43437;-59
2022/11/22 07:49:01;;;;;;;1.92;1.83;;;;;;;;;;5099381;27;43486;-59
2022/11/22 07:51:29;;;;;;;1.95;1.85;;;;;;;;;;5102512;27;43605;-59
2022/11/22 07:53:57;;;;;;;2.00;1.85;;;;;;;;;;5103953;27;44070;-59
2022/11/22 07:56:25;;;;;;;1.90;1.80;;;;;;;;;;5101391;27;43508;-59
2022/11/22 07:58:53;;;;;;;2.00;1.90;;;;;;;;;;5102879;27;43381;-59
2022/11/22 08:01:22;;;;;;;2.08;1.98;;;;;;;;;;5102914;27;43423;-59
2022/11/22 08:03:50;;;;;;;1.67;1.58;;;;;;;;;;5102142;27;44024;-59
2022/11/22 08:06:18;;;;;;;1.70;1.60;;;;;;;;;;5102254;27;43720;-59
2022/11/22 08:08:45;;;;;;;1.70;1.60;;;;;;;;;;5089138;27;43495;-59
2022/11/22 08:11:13;;;;;;;1.55;1.45;;;;;;;;;;5101971;27;43468;-59
2022/11/22 08:13:41;;;;;;;1.80;1.70;;;;;;;;;;5103203;27;44965;-59
2022/11/22 08:16:11;;;;;;;1.80;1.70;;;;;;;;;;5101418;27;43818;-59
2022/11/22 08:18:39;;;;;;;1.70;1.60;;;;;;;;;;5102969;27;43478;-59
2022/11/22 08:21:11;;;;;;;1.58;1.48;;;;;;;;;;5102411;27;43425;-59
2022/11/22 08:23:39;;;;;;;1.55;1.40;;;;;;;;;;5101866;27;44996;-59
2022/11/22 08:26:08;;;;;;;1.55;1.45;;;;;;;;;;5100290;27;43404;-59
2022/11/22 08:28:36;;;;;;;1.55;1.45;;;;;;;;;;5102749;27;43476;-59
2022/11/22 08:31:05;;;;;;;2.45;1.80;;;;;;;;;;5101169;27;43594;-58
2022/11/22 08:33:33;;;;;;;1.77;1.67;;;;;;;;;;5097908;27;43798;-59
2022/11/22 08:36:01;;;;;;;1.65;1.50;;;;;;;;;;5104000;27;43380;-59
2022/11/22 08:38:29;;;;;;;1.60;1.50;;;;;;;;;;5098444;27;43460;-59
2022/11/22 08:40:57;;;;;;;1.67;1.38;;;;;;;;;;5106919;27;43616;-59
2022/11/22 08:43:25;;;;;;;2.53;1.65;;;;;;;;;;5105746;27;43812;-59
2022/11/22 08:45:54;;;;;;;2.05;1.63;;;;;;;;;;5101848;27;44110;-59
2022/11/22 08:48:23;;;;;;;1.50;1.40;;;;;;;;;;5105680;27;43461;-59
2022/11/22 08:50:54;;;;;;;1.58;1.48;;;;;;;;;;5101929;27;43575;-59
2022/11/22 08:53:22;;;;;;;1.83;1.73;;;;;;;;;;5106082;27;43932;-60
2022/11/22 08:55:50;;;;;;;2.40;1.33;;;;;;;;;;5081576;27;43846;-60
2022/11/22 08:58:18;;;;;;;1.73;1.38;;;;;;;;;;5104454;27;43467;-60
2022/11/22 09:00:46;;;;;;;1.60;1.50;;;;;;;;;;5073920;27;43625;-59
2022/11/22 09:03:14;;;;;;;1.20;1.20;;;;;;;;;;5106906;27;43899;-59
2022/11/22 09:05:42;;;;;;;1.60;1.50;;;;;;;;;;5102612;27;44008;-60
2022/11/22 09:08:30;;;;;;;1.88;1.40;;;;;;;;;;5106381;27;43531;-60
2022/11/22 09:11:04;;;;;;;1.52;1.42;;;;;;;;;;5106242;27;43514;-60
2022/11/22 09:13:32;;;;;;;1.95;1.48;;;;;;;;;;5104656;27;44048;-59
2022/11/22 09:16:10;;;;;;;1.85;1.60;;;;;;;;;;5106178;27;43719;-60
2022/11/22 09:18:38;;;;;;;1.83;1.52;;;;;;;;;;5105965;27;43527;-60
2022/11/22 09:21:07;;;;;;;1.52;1.40;;;;;;;;;;5088815;27;43431;-60
2022/11/22 09:23:37;;;;;;;6.88;2.30;;;;;;;;;;5105159;27;43787;-60
2022/11/22 09:26:06;;;;;;;7.43;2.33;;;;;;;;;;5105594;27;43459;-59
2022/11/22 09:28:34;;;;;;;6.55;1.92;;;;;;;;;;5105094;27;43378;-60
2022/11/22 09:31:04;;;;;;;4.10;2.05;;;;;;;;;;5106898;27;43668;-60
2022/11/22 09:33:33;;;;;;;3.90;1.70;;;;;;;;;;5103550;27;44675;-60
2022/11/22 09:36:00;;;;;;;3.03;1.60;;;;;;;;;;5110805;27;43500;-60
2022/11/22 09:38:29;;;;;;;3.22;1.63;;;;;;;;;;5106584;27;43447;-60
2022/11/22 09:40:57;;;;;;;5.20;1.70;;;;;;;;;;5104701;27;43580;-60
2022/11/22 09:43:28;;;;;;;2.17;1.52;;;;;;;;;;5104640;27;43886;-60
2022/11/22 09:46:07;;;;;;;3.03;1.70;;;;;;;;;;5105310;27;43481;-59
2022/11/22 09:48:37;;;;;;;4.47;1.60;;;;;;;;;;5101454;27;43501;-60
2022/11/22 09:51:08;;;;;;;2.33;1.60;;;;;;;;;;5105870;27;43468;-60
2022/11/22 09:53:41;;;;;;;4.63;1.73;;;;;;;;;;5111294;27;43822;-60
2022/11/22 09:56:11;;;;;;;3.22;1.65;;;;;;;;;;5102528;27;43490;-60
2022/11/22 09:58:46;;;;;;;2.63;1.50;;;;;;;;;;5104950;27;43483;-59
2022/11/22 10:01:17;;;;;;;2.85;1.60;;;;;;;;;;5108930;27;43386;-60
2022/11/22 10:03:45;;;;;;;2.42;1.50;;;;;;;;;;5109165;27;43984;-60
2022/11/22 10:06:28;;;;;;;1.85;1.63;;;;;;;;;;5104470;27;43415;-60
2022/11/22 10:08:56;;;;;;;3.75;1.50;;;;;;;;;;5104580;27;43457;-59
2022/11/22 10:11:37;;;;;;;3.10;1.67;;;;;;;;;;5105327;27;43424;-59
2022/11/22 10:14:14;;;;;;;3.20;1.70;;;;;;;;;;5110137;27;44039;-59
2022/11/22 10:16:51;;;;;;;2.17;1.30;;;;;;;;;;5090193;27;43748;-59
2022/11/22 10:19:24;;;;;;;2.47;1.50;;;;;;;;;;5110627;27;43490;-59
2022/11/22 10:21:52;;;;;;;3.03;1.40;;;;;;;;;;5109622;27;43601;-61
2022/11/22 10:24:20;;;;;;;3.30;1.33;;;;;;;;;;5102298;27;44792;-61
2022/11/22 10:26:48;;;;;;;3.42;1.40;;;;;;;;;;5108414;27;43687;-62
2022/11/22 10:29:24;;;;;;;3.55;1.50;;;;;;;;;;5108811;27;43518;-63
2022/11/22 10:32:10;;;;;;;4.25;1.30;;;;;;;;;;5105054;27;43536;-63
2022/11/22 10:34:38;;;;;;;3.35;1.23;;;;;;;;;;5106873;27;44859;-62
2022/11/22 10:37:18;;;;;;;2.25;1.38;;;;;;;;;;5110344;27;43480;-62
2022/11/22 10:39:55;;;;;;;3.25;1.50;;;;;;;;;;5114351;27;43441;-61
2022/11/22 10:42:41;;;;;;;3.30;1.40;;;;;;;;;;5107469;27;43376;-62
2022/11/22 10:45:28;;;;;;;2.67;1.40;;;;;;;;;;5101737;27;44178;-62
2022/11/22 10:47:58;;;;;;;4.05;1.50;;;;;;;;;;5107685;27;43496;-62
2022/11/22 10:50:47;;;;;;;1.80;1.30;;;;;;;;;;5108114;27;43420;-61
2022/11/22 10:53:34;;;;;;;3.83;1.70;;;;;;;;;;5100451;27;43499;-63
2022/11/22 10:56:02;;;;;;;3.15;1.30;;;;;;;;;;5103669;27;43825;-62
2022/11/22 10:58:37;;;;;;;5.15;1.60;;;;;;;;;;5106684;27;43486;-62
2022/11/22 11:01:21;;;;;;;2.33;1.20;;;;;;;;;;5112535;27;43402;-61
2022/11/22 11:03:53;;;;;;;2.45;1.38;;;;;;;;;;5100544;27;43565;-61
2022/11/22 11:06:23;;;;;;;2.53;1.10;;;;;;;;;;5107431;27;44020;-61
2022/11/22 11:09:31;;;;;;;1.75;1.20;;;;;;;;;;5100946;27;43913;-59
2022/11/22 11:12:21;;;;;;;2.40;1.10;;;;;;;;;;5099783;27;43438;-61
2022/11/22 11:14:51;;;;;;;2.38;1.25;;;;;;;;;;5103864;27;43581;-61
2022/11/22 11:17:26;;;;;;;1.27;1.17;;;;;;;;;;5101960;27;44803;-61
2022/11/22 11:19:55;;;;;;;1.67;1.30;;;;;;;;;;5103730;27;43945;-61
2022/11/22 11:22:24;;;;;;;2.63;1.75;;;;;;;;;;5102546;27;43407;-61
2022/11/22 11:25:32;;;;;;;2.15;1.33;;;;;;;;;;5097308;27;44123;-61
2022/11/22 11:28:07;;;;;;;2.25;1.40;;;;;;;;;;5104026;27;43872;-61
2022/11/22 11:30:39;;;;;;;3.63;1.67;;;;;;;;;;5108747;27;43473;-61
2022/11/22 11:33:24;;;;;;;2.33;2.00;;;;;;;;;;5108927;27;43557;-61
2022/11/22 11:35:55;;;;;;;3.08;2.00;;;;;;;;;;5106711;27;43573;-61
2022/11/22 11:38:33;;;;;;;5.05;2.30;;;;;;;;;;5087389;27;44034;-61
2022/11/22 11:41:20;;;;;;;3.22;2.15;;;;;;;;;;5106255;27;43408;-61
2022/11/22 11:43:49;;;;;;;3.90;2.30;;;;;;;;;;5103324;27;43450;-60
2022/11/22 11:46:18;;;;;;;3.95;2.75;;;;;;;;;;5111251;27;43500;-61
2022/11/22 11:48:46;;;;;;;4.03;2.30;;;;;;;;;;5104090;27;44027;-61
2022/11/22 11:51:14;;;;;;;4.57;2.65;;;;;;;;;;5100303;27;43716;-61
2022/11/22 11:53:48;;;;;;;3.85;2.47;;;;;;;;;;5106833;27;43510;-60
2022/11/22 11:56:20;;;;;;;5.00;2.70;;;;;;;;;;5106460;27;43449;-60
2022/11/22 11:58:53;;;;;;;4.03;2.75;;;;;;;;;;5113843;27;43977;-61
2022/11/22 12:01:21;;;;;;;4.90;2.72;;;;;;;;;;5102415;27;44368;-61
2022/11/22 12:03:56;;;;;;;5.20;2.40;;;;;;;;;;5105395;27;43901;-61
2022/11/22 12:06:31;;;;;;;4.20;2.60;;;;;;;;;;5100986;27;43579;-61
2022/11/22 12:09:01;;;;;;;2.95;2.13;;;;;;;;;;5095881;27;43871;-60
2022/11/22 12:11:32;;;;;;;2.75;2.25;;;;;;;;;;5105057;27;43992;-61
2022/11/22 12:14:03;;;;;;;3.97;2.42;;;;;;;;;;5085722;27;43424;-61
2022/11/22 12:16:47;;;;;;;3.67;2.40;;;;;;;;;;5107533;27;43672;-61
2022/11/22 12:19:35;;;;;;;3.42;2.33;;;;;;;;;;5104175;27;44053;-60
2022/11/22 12:22:09;;;;;;;4.10;2.30;;;;;;;;;;5089440;27;43444;-60
2022/11/22 12:25:02;;;;;;;5.10;2.55;;;;;;;;;;5103818;27;43537;-61
2022/11/22 12:27:50;;;;;;;4.82;2.70;;;;;;;;;;5104322;27;43665;-61
2022/11/22 12:30:19;;;;;;;3.92;2.22;;;;;;;;;;5099226;27;44652;-61
2022/11/22 12:32:53;;;;;;;4.72;2.60;;;;;;;;;;5108515;27;43991;-61
2022/11/22 12:35:23;;;;;;;4.43;2.40;;;;;;;;;;5081835;27;43559;-63
2022/11/22 12:37:56;;;;;;;4.13;2.53;;;;;;;;;;5106540;27;43470;-61
2022/11/22 12:40:26;;;;;;;4.55;2.30;;;;;;;;;;5099056;27;43936;-61
2022/11/22 12:42:54;;;;;;;3.85;2.25;;;;;;;;;;5106227;27;43502;-61
2022/11/22 12:45:26;;;;;;;4.43;2.30;;;;;;;;;;5104046;27;43517;-61
2022/11/22 12:47:57;;;;;;;4.22;2.33;;;;;;;;;;5102821;27;43503;-61
2022/11/22 12:50:29;;;;;;;5.20;2.65;;;;;;;;;;5104200;27;43791;-62
2022/11/22 12:53:06;;;;;;;2.95;2.05;;;;;;;;;;5112803;27;43375;-61
2022/11/22 12:55:42;;;;;;;6.10;2.05;;;;;;;;;;5112816;27;43517;-61
2022/11/22 12:58:31;;;;;;;3.80;2.30;;;;;;;;;;5110550;27;43550;-61
2022/11/22 13:01:05;;;;;;;2.33;1.77;;;;;;;;;;5096137;27;44211;-61
2022/11/22 13:03:37;;;;;;;3.80;2.00;;;;;;;;;;5113406;27;43961;-61
2022/11/22 13:06:06;;;;;;;2.58;1.80;;;;;;;;;;5110516;27;43513;-61
2022/11/22 13:08:43;;;;;;;2.33;1.98;;;;;;;;;;5111132;27;43580;-62
2022/11/22 13:11:22;;;;;;;3.00;2.00;;;;;;;;;;5113389;27;44154;-61
2022/11/22 13:13:51;;;;;;;;;;;;;;;;;;5111149;27;43495;-61
2022/11/22 13:16:19;;;;;;;2.28;1.50;;;;;;;;;;5110649;27;43409;-61
2022/11/22 13:19:01;;;;;;;2.95;1.65;;;;;;;;;;5108694;27;43489;-61
2022/11/22 13:21:48;;;;;;;4.15;2.03;;;;;;;;;;5103780;27;44763;-62
2022/11/22 13:24:15;;;;;;;2.25;1.70;;;;;;;;;;5110814;27;43493;-61
2022/11/22 13:26:46;;;;;;;2.35;1.67;;;;;;;;;;5111892;27;44101;-62
2022/11/22 13:29:40;;;;;;;3.50;1.80;;;;;;;;;;5104613;27;43521;-62
2022/11/22 13:32:11;;;;;;;3.00;1.52;;;;;;;;;;5102678;27;43734;-61
2022/11/22 13:34:40;;;;;;;2.10;1.50;;;;;;;;;;5106587;27;43469;-61
2022/11/22 13:37:13;;;;;;;2.65;1.60;;;;;;;;;;5108335;27;43443;-62
2022/11/22 13:39:45;;;;;;;2.17;1.50;;;;;;;;;;5113939;27;43477;-62
2022/11/22 13:42:16;;;;;;;1.90;1.60;;;;;;;;;;5111623;27;43786;-61
2022/11/22 13:44:44;;;;;;;;;;;;;;;;;;5111236;27;43896;-61
2022/11/22 13:47:12;;;;;;;3.78;1.60;;;;;;;;;;5112343;27;43445;-61
2022/11/22 13:49:41;;;;;;;2.42;1.35;;;;;;;;;;5096590;27;43521;-62
2022/11/22 13:52:15;;;;;;;2.40;1.58;;;;;;;;;;5099756;27;44039;-61
2022/11/22 13:54:46;;;;;;;2.47;1.50;;;;;;;;;;5105845;27;43518;-61
2022/11/22 13:57:29;;;;;;;2.10;1.52;;;;;;;;;;5107614;27;43395;-61
2022/11/22 14:00:15;;;;;;;2.33;1.50;;;;;;;;;;5109270;27;43485;-61
2022/11/22 14:02:43;;;;;;;2.92;1.60;;;;;;;;;;5101050;27;43879;-62
2022/11/22 14:05:20;;;;;;;1.98;1.50;;;;;;;;;;5107484;27;43428;-61
2022/11/22 14:07:52;;;;;;;3.03;1.50;;;;;;;;;;5106488;27;43992;-61
2022/11/22 14:10:32;;;;;;;1.40;1.30;;;;;;;;;;5104072;27;43409;-61
2022/11/22 14:13:03;;;;;;;2.95;1.40;;;;;;;;;;5088429;27;43887;-61
2022/11/22 14:15:46;;;;;;;2.22;1.50;;;;;;;;;;5106416;27;43400;-61
2022/11/22 14:18:32;;;;;;;1.60;1.33;;;;;;;;;;5101661;27;43434;-61
2022/11/22 14:21:00;;;;;;;2.15;1.40;;;;;;;;;;5105400;27;43422;-61
2022/11/22 14:23:48;;;;;;;2.08;1.30;;;;;;;;;;5103416;27;44740;-61
2022/11/22 14:26:20;;;;;;;2.35;1.40;;;;;;;;;;5100102;27;44018;-61
2022/11/22 14:28:48;;;;;;;2.38;1.30;;;;;;;;;;5083383;27;43473;-61
2022/11/22 14:31:25;;;;;;;1.70;1.10;;;;;;;;;;5103291;27;43712;-61
2022/11/22 14:34:12;;;;;;;2.22;1.25;;;;;;;;;;5099299;27;43790;-61
2022/11/22 14:36:39;;;;;;;1.95;1.38;;;;;;;;;;5096020;27;43462;-61
2022/11/22 14:39:28;;;;;;;1.85;1.33;;;;;;;;;;5086948;27;43403;-61
2022/11/22 14:42:00;;;;;;;2.08;1.50;;;;;;;;;;5065601;27;43786;-62
2022/11/22 14:44:33;;;;;;;1.27;1.10;;;;;;;;;;5110075;27;43794;-61
2022/11/22 14:47:03;;;;;;;1.55;1.10;;;;;;;;;;5108818;27;43509;-61
2022/11/22 14:49:48;;;;;;;2.38;1.27;;;;;;;;;;5105535;27;43502;-61
2022/11/22 14:52:26;;;;;;;1.55;1.10;;;;;;;;;;5106473;27;43485;-61
2022/11/22 14:54:56;;;;;;;2.83;1.30;;;;;;;;;;5110275;27;44957;-62
2022/11/22 14:57:25;;;;;;;3.00;1.38;;;;;;;;;;5105291;27;43388;-60
2022/11/22 15:00:02;;;;;;;2.35;1.20;;;;;;;;;;5109565;27;43502;-60
2022/11/22 15:02:29;;;;;;;2.47;1.20;;;;;;;;;;5109419;27;43456;-60
2022/11/22 15:05:09;;;;;;;1.42;1.33;;;;;;;;;;5111035;27;43785;-60
2022/11/22 15:08:07;;;;;;;2.58;1.20;;;;;;;;;;5112731;27;43529;-60
2022/11/22 15:11:13;;;;;;;1.75;0.95;;;;;;;;;;5087023;27;43531;-60
2022/11/22 15:13:53;;;;;;;1.98;1.10;;;;;;;;;;5106816;27;43481;-60
2022/11/22 15:16:25;;;;;;;3.40;1.20;;;;;;;;;;5109197;27;43800;-61
2022/11/22 15:19:33;;;;;;;1.67;0.82;;;;;;;;;;5087188;27;43490;-61
2022/11/22 15:22:25;;;;;;;2.05;1.20;;;;;;;;;;5112291;27;43452;-61